East Calais, Vermont
Current Conditions -  °F | °C
As of 2:06 AM on Thursday 18 Dec 2014 (Local Time) from KMPV Reporting Station
Unknown Precip Unknown Precip  
Wind Chill: 33°   Ceiling: 1800
Heat Index: 33°   Visibility: 7mi
Dew Point: 32°   Wind: 0mph
Humidity: 96%   Direction: NA
Pressure: 29.73"   Gusts: NA
Location:  44.37°N, 72.43°W
Report Text: KMPV 180706Z AUTO 00000KT 7SM UP SCT010 BKN018 OVC027 01/00 A2973 RMK AO2 SNB0654E05 P0000 T00060000
Loading
Personal Weather Stations






























Interactive Weather Map New forecast layout! Learn more

10-Day Weather Forecast

Advertisements
Track Severe Weather on mobile